createdAt,value
2023-05-13T00:02:25.977Z,9.68
2023-05-13T00:04:52.897Z,4.18
2023-05-13T00:07:20.113Z,2.85
2023-05-13T00:09:46.989Z,2.78
2023-05-13T00:12:13.921Z,4.75
2023-05-13T00:14:40.959Z,2.40
2023-05-13T00:17:07.902Z,3.53
2023-05-13T00:19:34.832Z,4.47
2023-05-13T00:22:01.722Z,3.75
2023-05-13T00:24:28.735Z,5.93
2023-05-13T00:26:55.539Z,4.47
2023-05-13T00:29:22.584Z,5.75
2023-05-13T00:31:49.475Z,2.45
2023-05-13T00:34:17.049Z,4.70
2023-05-13T00:36:44.602Z,4.00
2023-05-13T00:39:11.786Z,4.38
2023-05-13T00:42:04.549Z,5.20
2023-05-13T00:44:31.709Z,5.43
2023-05-13T00:46:59.381Z,7.00
2023-05-13T00:49:27.019Z,4.82
2023-05-13T00:51:55.342Z,5.45
2023-05-13T00:54:22.457Z,3.25
2023-05-13T00:56:49.354Z,7.72
2023-05-13T00:59:16.223Z,4.95
2023-05-13T01:02:10.883Z,7.50
2023-05-13T01:04:44.076Z,4.03
2023-05-13T01:07:22.803Z,3.55
2023-05-13T01:10:16.041Z,4.22
2023-05-13T01:12:46.628Z,4.40
2023-05-13T01:15:21.933Z,3.92
2023-05-13T01:18:00.008Z,11.73
2023-05-13T01:20:28.474Z,3.13
2023-05-13T01:22:56.716Z,3.30
2023-05-13T01:25:25.789Z,3.40
2023-05-13T01:27:53.549Z,3.38
2023-05-13T01:30:21.820Z,5.68
2023-05-13T01:32:50.491Z,3.25
2023-05-13T01:35:18.055Z,4.72
2023-05-13T01:37:49.095Z,4.93
2023-05-13T01:40:31.210Z,3.92
2023-05-13T01:43:02.094Z,4.85
2023-05-13T01:45:30.410Z,4.53
2023-05-13T01:47:57.894Z,3.42
2023-05-13T01:50:26.722Z,5.80
2023-05-13T01:52:53.694Z,5.95
2023-05-13T01:55:20.819Z,6.15
2023-05-13T01:57:48.842Z,3.15
2023-05-13T02:00:16.429Z,4.53
2023-05-13T02:02:43.203Z,5.13
2023-05-13T02:05:10.646Z,5.03
2023-05-13T02:07:38.285Z,7.78
2023-05-13T02:10:06.450Z,6.97
2023-05-13T02:12:33.453Z,7.45
2023-05-13T02:15:00.504Z,11.60
2023-05-13T02:17:27.481Z,10.18
2023-05-13T02:19:54.550Z,4.95
2023-05-13T02:22:21.378Z,3.88
2023-05-13T02:24:48.363Z,5.45
2023-05-13T02:27:16.497Z,3.13
2023-05-13T02:29:43.537Z,3.55
2023-05-13T02:32:11.437Z,3.60
2023-05-13T02:34:38.598Z,3.67
2023-05-13T02:37:05.949Z,3.28
2023-05-13T02:39:38.166Z,7.22
2023-05-13T02:42:05.727Z,5.15
2023-05-13T02:44:33.105Z,4.53
2023-05-13T02:47:01.051Z,5.00
2023-05-13T02:49:28.101Z,7.22
2023-05-13T02:51:55.273Z,6.93
2023-05-13T02:54:29.089Z,4.97
2023-05-13T02:56:56.211Z,6.30
2023-05-13T02:59:23.307Z,5.70
2023-05-13T03:01:50.350Z,7.25
2023-05-13T03:04:17.381Z,9.20
2023-05-13T03:06:44.550Z,5.35
2023-05-13T03:09:11.345Z,7.45
2023-05-13T03:11:38.386Z,3.97
2023-05-13T03:14:05.674Z,3.90
2023-05-13T03:16:32.869Z,9.57
2023-05-13T03:18:59.975Z,3.63
2023-05-13T03:21:27.279Z,4.20
2023-05-13T03:23:54.354Z,4.47
2023-05-13T03:26:21.955Z,9.32
2023-05-13T03:28:48.868Z,5.28
2023-05-13T03:31:16.882Z,7.47
2023-05-13T03:33:44.299Z,8.27
2023-05-13T03:36:12.513Z,13.20
2023-05-13T03:38:39.349Z,10.98
2023-05-13T03:41:06.420Z,8.45
2023-05-13T03:43:34.028Z,7.78
2023-05-13T03:46:03.752Z,6.80
2023-05-13T03:48:31.270Z,6.60
2023-05-13T03:51:02.050Z,8.90
2023-05-13T03:53:29.505Z,6.00
2023-05-13T03:55:56.350Z,4.07
2023-05-13T03:58:23.420Z,8.88
2023-05-13T04:00:50.346Z,5.15
2023-05-13T04:03:17.808Z,5.05
2023-05-13T04:05:48.380Z,5.88
2023-05-13T04:08:16.017Z,7.37
2023-05-13T04:10:43.703Z,10.57
2023-05-13T04:13:11.410Z,8.98
2023-05-13T04:15:38.500Z,5.53
2023-05-13T04:18:06.818Z,5.50
2023-05-13T04:20:34.904Z,5.70
2023-05-13T04:23:01.961Z,6.32
2023-05-13T04:25:29.885Z,5.75
2023-05-13T04:27:56.945Z,8.38
2023-05-13T04:30:29.899Z,5.13
2023-05-13T04:32:57.481Z,5.55
2023-05-13T04:35:24.875Z,5.45
2023-05-13T04:37:55.620Z,8.38
2023-05-13T04:40:23.218Z,5.72
2023-05-13T04:42:54.880Z,6.05
2023-05-13T04:45:29.618Z,7.00
2023-05-13T04:47:58.503Z,8.48
2023-05-13T04:50:25.590Z,4.35
2023-05-13T04:52:55.008Z,3.30
2023-05-13T04:55:23.041Z,4.50
2023-05-13T04:57:50.973Z,5.13
2023-05-13T05:00:18.781Z,5.97
2023-05-13T05:02:48.977Z,3.60
2023-05-13T05:05:18.257Z,3.88
2023-05-13T05:07:46.353Z,3.63
2023-05-13T05:10:15.231Z,5.00
2023-05-13T05:12:48.770Z,6.22
2023-05-13T05:15:15.996Z,3.47
2023-05-13T05:17:46.421Z,11.27
2023-05-13T05:20:13.660Z,5.60
2023-05-13T05:22:42.349Z,11.07
2023-05-13T05:25:13.480Z,6.03
2023-05-13T05:27:43.435Z,5.97
2023-05-13T05:30:11.368Z,19.10
2023-05-13T05:35:39.791Z,4.80
2023-05-13T05:38:12.658Z,6.63
2023-05-13T05:40:48.695Z,10.68
2023-05-13T05:43:16.620Z,23.02
2023-05-13T05:45:44.385Z,7.43
2023-05-13T05:48:15.726Z,14.75
2023-05-13T05:50:43.000Z,13.60
2023-05-13T05:53:13.107Z,8.80
2023-05-13T05:55:40.486Z,9.73
2023-05-13T05:58:19.849Z,10.55
2023-05-13T06:00:47.089Z,9.68
2023-05-13T06:03:14.348Z,5.70
2023-05-13T06:05:41.683Z,7.97
2023-05-13T06:08:08.647Z,5.07
2023-05-13T06:10:35.478Z,4.40
2023-05-13T06:13:02.590Z,7.95
2023-05-13T06:15:30.159Z,5.25
2023-05-13T06:17:57.754Z,10.30
2023-05-13T06:20:25.353Z,6.38
2023-05-13T06:22:52.421Z,4.43
2023-05-13T06:25:19.298Z,4.22
2023-05-13T06:27:46.579Z,13.73
2023-05-13T06:30:13.565Z,7.40
2023-05-13T06:32:53.464Z,7.30
2023-05-13T06:35:27.637Z,6.22
2023-05-13T06:37:54.724Z,8.82
2023-05-13T06:40:22.182Z,10.82
2023-05-13T06:42:49.440Z,13.45
2023-05-13T06:45:23.648Z,4.85
2023-05-13T06:47:51.801Z,4.63
2023-05-13T06:50:19.805Z,7.38
2023-05-13T06:52:47.360Z,4.18
2023-05-13T06:55:14.926Z,2.83
2023-05-13T06:57:43.808Z,10.10
2023-05-13T07:00:11.624Z,3.50
2023-05-13T07:02:39.265Z,2.03
2023-05-13T07:05:06.926Z,10.02
2023-05-13T07:07:34.488Z,2.28
2023-05-13T07:10:01.608Z,3.92
2023-05-13T07:12:28.508Z,1.55
2023-05-13T07:14:55.594Z,2.78
2023-05-13T07:17:31.477Z,6.25
2023-05-13T07:19:58.447Z,6.25
2023-05-13T07:22:25.367Z,5.18
2023-05-13T07:24:52.430Z,2.05
2023-05-13T07:27:19.301Z,5.88
2023-05-13T07:29:46.553Z,11.35
2023-05-13T07:32:13.338Z,3.33
2023-05-13T07:34:40.764Z,9.07
2023-05-13T07:37:07.516Z,4.07
2023-05-13T07:39:34.343Z,2.55
2023-05-13T07:42:02.294Z,2.28
2023-05-13T07:44:29.924Z,3.22
2023-05-13T07:46:56.908Z,1.02
2023-05-13T07:49:24.089Z,5.55
2023-05-13T07:51:50.927Z,1.67
2023-05-13T07:54:18.666Z,1.85
2023-05-13T07:56:46.695Z,3.80
2023-05-13T07:59:13.716Z,3.63
2023-05-13T08:01:40.770Z,2.55
2023-05-13T08:04:08.092Z,2.80
2023-05-13T08:06:35.127Z,0.93
2023-05-13T08:09:02.255Z,1.67
2023-05-13T08:11:29.149Z,3.47
2023-05-13T08:13:56.044Z,5.93
2023-05-13T08:16:23.385Z,12.70
2023-05-13T08:18:50.404Z,3.83
2023-05-13T08:21:17.395Z,2.20
2023-05-13T08:23:45.866Z,1.85
2023-05-13T08:26:13.897Z,2.15
2023-05-13T08:28:42.281Z,8.75
2023-05-13T08:31:12.623Z,3.78
2023-05-13T08:33:41.911Z,5.22
2023-05-13T08:36:09.955Z,2.00
2023-05-13T08:38:36.807Z,4.13
2023-05-13T08:41:07.035Z,2.88
2023-05-13T08:43:34.536Z,3.38
2023-05-13T08:46:04.375Z,3.95
2023-05-13T08:48:32.344Z,3.38
2023-05-13T08:51:01.294Z,2.20
2023-05-13T08:53:28.611Z,2.28
2023-05-13T08:55:56.742Z,4.18
2023-05-13T08:58:25.255Z,5.10
2023-05-13T09:00:54.264Z,4.43
2023-05-13T09:03:21.719Z,2.83
2023-05-13T09:05:48.865Z,1.90
2023-05-13T09:08:15.629Z,3.17
2023-05-13T09:10:42.786Z,2.85
2023-05-13T09:13:12.082Z,2.10
2023-05-13T09:15:42.402Z,4.07
2023-05-13T09:18:09.523Z,3.10
2023-05-13T09:20:36.876Z,2.92
2023-05-13T09:23:09.277Z,4.70
2023-05-13T09:25:37.753Z,2.63
2023-05-13T09:28:07.751Z,1.20
2023-05-13T09:30:36.851Z,1.77
2023-05-13T09:33:12.133Z,2.17
2023-05-13T09:35:44.583Z,2.97
2023-05-13T09:38:39.242Z,9.35
2023-05-13T09:41:06.489Z,1.70
2023-05-13T09:43:33.928Z,2.80
2023-05-13T09:46:05.346Z,3.17
2023-05-13T09:51:07.588Z,1.05
2023-05-13T09:53:35.122Z,1.33
2023-05-13T09:56:38.224Z,3.10
2023-05-13T09:59:05.155Z,2.72
2023-05-13T10:01:35.133Z,5.40
2023-05-13T10:04:03.160Z,2.95
2023-05-13T10:06:31.245Z,0.88
2023-05-13T10:09:01.377Z,1.35
2023-05-13T10:11:31.464Z,2.38
2023-05-13T10:14:05.256Z,2.03
2023-05-13T10:16:32.437Z,2.83
2023-05-13T10:18:59.832Z,1.10
2023-05-13T10:21:31.175Z,3.58
2023-05-13T10:26:26.254Z,8.15
2023-05-13T10:28:55.282Z,2.65
2023-05-13T10:31:22.139Z,2.78
2023-05-13T10:33:49.255Z,1.00
2023-05-13T10:36:47.193Z,13.90
2023-05-13T10:39:32.752Z,2.40
2023-05-13T10:42:30.785Z,3.55
2023-05-13T10:45:01.531Z,4.55
2023-05-13T10:47:32.769Z,6.03
2023-05-13T10:50:04.963Z,2.63
2023-05-13T10:52:48.089Z,2.20
2023-05-13T10:55:17.412Z,3.55
2023-05-13T10:58:10.997Z,5.93
2023-05-13T11:01:08.009Z,1.10
2023-05-13T11:03:35.345Z,2.15
2023-05-13T11:06:16.478Z,2.55
2023-05-13T11:08:45.574Z,1.85
2023-05-13T11:11:21.430Z,4.45
2023-05-13T11:14:00.343Z,2.63
2023-05-13T11:16:27.403Z,1.48
2023-05-13T11:18:54.806Z,1.67
2023-05-13T11:21:35.778Z,2.78
2023-05-13T11:24:05.788Z,1.65
2023-05-13T11:26:46.925Z,3.85
2023-05-13T11:29:14.658Z,4.25
2023-05-13T11:31:50.354Z,8.82
2023-05-13T11:34:18.773Z,1.95
2023-05-13T11:36:56.813Z,0.77
2023-05-13T11:39:26.609Z,2.63
2023-05-13T11:41:57.303Z,4.90
2023-05-13T11:44:25.537Z,1.38
2023-05-13T11:46:59.622Z,1.65
2023-05-13T11:49:44.052Z,3.97
2023-05-13T11:52:12.063Z,0.73
2023-05-13T11:54:52.565Z,1.25
2023-05-13T11:57:19.762Z,3.30
2023-05-13T12:00:07.658Z,2.22
2023-05-13T12:02:40.536Z,1.25
2023-05-13T12:05:10.066Z,1.58
2023-05-13T12:07:38.468Z,3.17
2023-05-13T12:10:07.069Z,2.40
2023-05-13T12:12:36.078Z,1.33
2023-05-13T12:15:05.289Z,3.40
2023-05-13T12:17:34.261Z,1.70
2023-05-13T12:20:13.332Z,1.55
2023-05-13T12:22:43.587Z,1.10
2023-05-13T12:25:32.666Z,2.08
2023-05-13T12:28:00.437Z,2.45
2023-05-13T12:30:34.295Z,2.35
2023-05-13T12:33:01.780Z,3.30
2023-05-13T12:35:28.638Z,7.47
2023-05-13T12:38:05.538Z,3.97
2023-05-13T12:40:32.923Z,3.00
2023-05-13T12:43:03.454Z,2.28
2023-05-13T12:45:31.398Z,1.37
2023-05-13T12:47:59.392Z,2.75
2023-05-13T12:50:26.873Z,2.33
2023-05-13T12:52:54.558Z,3.83
2023-05-13T12:55:21.791Z,2.83
2023-05-13T12:58:03.245Z,1.90
2023-05-13T13:00:31.241Z,6.38
2023-05-13T13:02:58.211Z,3.92
2023-05-13T13:05:26.370Z,2.13
2023-05-13T13:07:53.411Z,1.98
2023-05-13T13:10:20.379Z,2.22
2023-05-13T13:12:47.433Z,3.15
2023-05-13T13:15:14.205Z,3.72
2023-05-13T13:17:41.016Z,3.50
2023-05-13T13:20:08.388Z,4.95
2023-05-13T13:22:39.143Z,6.57
2023-05-13T13:25:07.126Z,1.77
2023-05-13T13:27:35.171Z,3.30
2023-05-13T13:30:02.707Z,1.90
2023-05-13T13:32:29.839Z,2.60
2023-05-13T13:34:58.326Z,1.55
2023-05-13T13:37:25.849Z,8.77
2023-05-13T13:39:52.968Z,1.42
2023-05-13T13:42:20.320Z,4.95
2023-05-13T13:44:47.138Z,4.82
2023-05-13T13:47:14.856Z,1.98
2023-05-13T13:49:41.598Z,3.50
2023-05-13T13:52:08.599Z,3.50
2023-05-13T13:54:35.406Z,1.70
2023-05-13T13:57:02.495Z,1.95
2023-05-13T13:59:29.569Z,2.60
2023-05-13T14:01:56.879Z,4.72
2023-05-13T14:04:27.391Z,2.08
2023-05-13T14:06:57.779Z,8.35
2023-05-13T14:09:25.235Z,2.73
2023-05-13T14:11:52.077Z,2.00
2023-05-13T14:14:19.188Z,3.80
2023-05-13T14:16:46.132Z,2.03
2023-05-13T14:19:13.360Z,27.60
2023-05-13T14:21:40.383Z,1.25
2023-05-13T14:24:08.988Z,8.82
2023-05-13T14:26:35.879Z,2.85
2023-05-13T14:29:02.910Z,2.75
2023-05-13T14:31:30.515Z,1.85
2023-05-13T14:33:58.341Z,2.08
2023-05-13T14:36:26.836Z,3.70
2023-05-13T14:38:54.544Z,5.30
2023-05-13T14:41:22.747Z,1.27
2023-05-13T14:43:49.695Z,6.43
2023-05-13T14:46:16.682Z,4.22
2023-05-13T14:48:43.932Z,4.70
2023-05-13T14:51:12.443Z,9.75
2023-05-13T14:53:42.753Z,3.20
2023-05-13T14:56:09.982Z,2.13
2023-05-13T14:58:37.132Z,1.90
2023-05-13T15:01:04.266Z,1.25
2023-05-13T15:03:31.411Z,7.07
2023-05-13T15:05:58.384Z,4.55
2023-05-13T15:08:25.780Z,2.38
2023-05-13T15:10:52.697Z,5.28
2023-05-13T15:13:19.794Z,1.20
2023-05-13T15:15:46.889Z,7.32
2023-05-13T15:18:14.209Z,1.08
2023-05-13T15:20:41.442Z,6.00
2023-05-13T15:23:08.382Z,1.55
2023-05-13T15:25:36.157Z,2.50
2023-05-13T15:28:03.135Z,5.38
2023-05-13T15:30:30.237Z,3.00
2023-05-13T15:32:57.307Z,1.27
2023-05-13T15:35:24.278Z,2.70
2023-05-13T15:37:51.125Z,3.47
2023-05-13T15:40:17.959Z,3.03
2023-05-13T15:42:44.960Z,2.63
2023-05-13T15:45:12.055Z,2.13
2023-05-13T15:47:38.899Z,2.05
2023-05-13T15:50:06.994Z,1.65
2023-05-13T15:52:33.831Z,3.78
2023-05-13T15:55:01.069Z,5.88
2023-05-13T15:57:27.824Z,1.67
2023-05-13T15:59:54.834Z,2.42
2023-05-13T16:02:21.724Z,3.03
2023-05-13T16:04:48.700Z,2.85
2023-05-13T16:07:15.484Z,1.98
2023-05-13T16:09:42.626Z,4.28
2023-05-13T16:16:25.840Z,1.20
2023-05-13T16:18:54.209Z,1.85
2023-05-13T16:21:21.503Z,4.55
2023-05-13T16:23:48.341Z,2.00
2023-05-13T16:26:15.423Z,1.65
2023-05-13T16:28:42.202Z,1.63
2023-05-13T16:34:00.301Z,2.05
2023-05-13T16:36:27.195Z,2.10
2023-05-13T16:38:54.008Z,3.20
2023-05-13T16:41:21.582Z,2.47
2023-05-13T16:43:48.340Z,4.63
2023-05-13T16:46:16.681Z,5.07
2023-05-13T16:49:05.212Z,4.65
2023-05-13T16:51:32.034Z,12.55
2023-05-13T16:57:39.286Z,7.80
2023-05-13T17:00:07.449Z,4.45
2023-05-13T17:02:34.647Z,3.25
2023-05-13T17:05:01.620Z,3.58
2023-05-13T17:07:28.413Z,5.25
2023-05-13T17:09:55.474Z,2.95
2023-05-13T17:12:22.250Z,9.35
2023-05-13T17:14:50.394Z,11.65
2023-05-13T17:17:17.158Z,5.63
2023-05-13T17:19:44.188Z,8.50
2023-05-13T17:22:20.062Z,7.53
2023-05-13T17:24:47.174Z,6.53
2023-05-13T17:27:14.093Z,5.57
2023-05-13T17:29:41.141Z,8.93
2023-05-13T17:32:08.132Z,17.42
2023-05-13T17:34:35.144Z,35.13
2023-05-13T17:37:02.132Z,16.60
2023-05-13T17:39:28.926Z,22.45
2023-05-13T17:41:56.026Z,25.40
2023-05-13T17:44:24.001Z,14.88
2023-05-13T17:46:50.947Z,23.80
2023-05-13T17:49:17.964Z,16.92
2023-05-13T17:51:44.877Z,29.92
2023-05-13T17:54:11.774Z,59.28
2023-05-13T17:56:38.737Z,65.45
2023-05-13T17:59:06.684Z,77.68
2023-05-13T18:01:33.656Z,69.13
2023-05-13T18:04:00.890Z,57.97
2023-05-13T18:06:27.686Z,41.05
2023-05-13T18:08:54.715Z,31.55
2023-05-13T18:11:22.199Z,20.08
2023-05-13T18:13:49.120Z,27.15
2023-05-13T18:16:19.484Z,27.48
2023-05-13T18:18:48.627Z,21.17
2023-05-13T18:21:16.014Z,34.28
2023-05-13T18:23:45.809Z,20.52
2023-05-13T18:26:12.656Z,18.40
2023-05-13T18:28:41.597Z,17.40
2023-05-13T18:31:08.434Z,21.88
2023-05-13T18:33:35.385Z,21.23
2023-05-13T18:36:02.420Z,35.28
2023-05-13T18:38:29.207Z,28.80
2023-05-13T18:40:56.226Z,19.85
2023-05-13T18:43:23.228Z,14.73
2023-05-13T18:45:50.285Z,15.05
2023-05-13T18:48:17.509Z,10.15
2023-05-13T18:50:44.501Z,6.97
2023-05-13T18:53:11.419Z,9.43
2023-05-13T18:55:38.495Z,7.18
2023-05-13T18:58:05.415Z,11.38
2023-05-13T19:00:32.181Z,5.60
2023-05-13T19:02:59.503Z,5.90
2023-05-13T19:05:26.712Z,10.25
2023-05-13T19:07:53.693Z,6.22
2023-05-13T19:10:20.763Z,9.48
2023-05-13T19:12:47.801Z,10.52
2023-05-13T19:15:14.713Z,12.82
2023-05-13T19:17:42.294Z,12.00
2023-05-13T19:20:09.854Z,12.38
2023-05-13T19:22:36.958Z,10.02
2023-05-13T19:25:05.271Z,11.18
2023-05-13T19:27:32.364Z,11.38
2023-05-13T19:29:59.242Z,12.02
2023-05-13T19:32:26.344Z,16.45
2023-05-13T19:34:53.232Z,11.60
2023-05-13T19:37:20.442Z,10.70
2023-05-13T19:39:47.349Z,10.15
2023-05-13T19:42:15.248Z,10.77
2023-05-13T19:44:42.296Z,8.00
2023-05-13T19:47:09.383Z,5.95
2023-05-13T19:49:36.174Z,6.03
2023-05-13T19:52:03.284Z,6.25
2023-05-13T19:54:30.176Z,14.25
2023-05-13T19:56:57.356Z,9.18
2023-05-13T19:59:24.121Z,12.43
2023-05-13T20:01:52.079Z,8.20
2023-05-13T20:04:19.106Z,9.05
2023-05-13T20:06:46.065Z,10.80
2023-05-13T20:09:12.895Z,7.55
2023-05-13T20:11:39.822Z,8.13
2023-05-13T20:14:06.721Z,7.63
2023-05-13T20:16:33.653Z,7.95
2023-05-13T20:19:00.648Z,6.53
2023-05-13T20:21:27.712Z,9.40
2023-05-13T20:23:54.738Z,6.40
2023-05-13T20:26:22.025Z,6.38
2023-05-13T20:28:51.481Z,6.72
2023-05-13T20:31:18.497Z,9.20
2023-05-13T20:33:45.790Z,10.82
2023-05-13T20:36:16.356Z,12.52
2023-05-13T20:38:46.733Z,7.90
2023-05-13T20:41:13.598Z,7.87
2023-05-13T20:43:44.875Z,8.45
2023-05-13T20:46:18.984Z,6.93
2023-05-13T20:48:51.604Z,7.15
2023-05-13T20:51:18.598Z,8.63
2023-05-13T20:53:47.547Z,5.13
2023-05-13T20:57:04.061Z,6.75
2023-05-13T20:59:31.415Z,4.60
2023-05-13T21:01:58.792Z,5.90
2023-05-13T21:04:25.858Z,6.20
2023-05-13T21:06:57.341Z,10.70
2023-05-13T21:11:52.152Z,7.00
2023-05-13T21:14:19.256Z,5.85
2023-05-13T21:16:46.060Z,5.22
2023-05-13T21:19:22.753Z,5.78
2023-05-13T21:21:50.319Z,4.40
2023-05-13T21:24:18.981Z,5.60
2023-05-13T21:26:47.060Z,4.32
2023-05-13T21:29:13.994Z,4.43
2023-05-13T21:31:41.108Z,5.32
2023-05-13T21:34:08.274Z,6.05
2023-05-13T21:36:38.890Z,4.03
2023-05-13T21:39:07.169Z,3.83
2023-05-13T21:41:34.152Z,3.42
2023-05-13T21:44:01.140Z,2.50
2023-05-13T21:46:28.256Z,6.07
2023-05-13T21:48:55.359Z,3.20
2023-05-13T21:51:22.482Z,3.65
2023-05-13T21:53:49.385Z,4.82
2023-05-13T21:56:16.357Z,6.57
2023-05-13T21:58:44.713Z,3.67
2023-05-13T22:01:11.762Z,9.00
2023-05-13T22:03:38.785Z,8.10
2023-05-13T22:06:05.857Z,6.35
2023-05-13T22:08:33.622Z,4.10
2023-05-13T22:11:01.462Z,6.13
2023-05-13T22:13:28.332Z,2.80
2023-05-13T22:15:55.474Z,3.20
2023-05-13T22:18:23.787Z,5.30
2023-05-13T22:20:51.268Z,4.15
2023-05-13T22:23:18.166Z,4.32
2023-05-13T22:25:45.088Z,3.35
2023-05-13T22:28:12.095Z,9.15
2023-05-13T22:30:39.140Z,5.07
2023-05-13T22:33:06.297Z,4.65
2023-05-13T22:35:36.481Z,5.50
2023-05-13T22:38:06.598Z,3.50
2023-05-13T22:40:33.625Z,4.78
2023-05-13T22:43:00.794Z,3.40
2023-05-13T22:45:27.737Z,5.38
2023-05-13T22:47:55.924Z,3.22
2023-05-13T22:50:23.321Z,3.45
2023-05-13T22:52:50.412Z,4.78
2023-05-13T22:55:17.503Z,4.85
2023-05-13T22:57:44.281Z,3.92
2023-05-13T23:00:12.081Z,3.97
2023-05-13T23:02:38.884Z,4.25
2023-05-13T23:05:06.345Z,3.08
2023-05-13T23:07:33.124Z,6.97
2023-05-13T23:09:59.928Z,5.60
2023-05-13T23:12:26.863Z,8.68
2023-05-13T23:14:53.874Z,6.05
2023-05-13T23:17:20.655Z,3.85
2023-05-13T23:19:47.690Z,6.13
2023-05-13T23:22:14.550Z,4.70
2023-05-13T23:24:41.438Z,7.57
2023-05-13T23:27:08.242Z,5.22
2023-05-13T23:29:35.211Z,3.92
2023-05-13T23:32:03.301Z,3.80
2023-05-13T23:34:31.365Z,3.60
2023-05-13T23:36:58.269Z,5.10
2023-05-13T23:39:25.084Z,4.03
2023-05-13T23:41:51.964Z,4.40
2023-05-13T23:44:19.064Z,3.60
2023-05-13T23:46:45.890Z,3.92
2023-05-13T23:49:13.021Z,4.93
2023-05-13T23:51:39.760Z,5.20
2023-05-13T23:54:08.377Z,4.05
2023-05-13T23:56:35.339Z,4.85
2023-05-13T23:59:02.272Z,3.50
